sensor_id;sensor_type;location;lat;lon;timestamp;P1;durP1;ratioP1;P2;durP2;ratioP2
56401;SDS011;42299;35.160;26.100;2023-09-18T00:00:34;15.75;;;8.98;;
56401;SDS011;42299;35.160;26.100;2023-09-18T00:10:57;17.05;;;8.60;;
56401;SDS011;42299;35.160;26.100;2023-09-18T00:21:22;14.10;;;7.63;;
56401;SDS011;42299;35.160;26.100;2023-09-18T00:31:46;16.27;;;8.80;;
56401;SDS011;42299;35.160;26.100;2023-09-18T00:42:11;19.52;;;8.57;;
56401;SDS011;42299;35.160;26.100;2023-09-18T00:52:34;17.38;;;8.85;;
56401;SDS011;42299;35.160;26.100;2023-09-18T01:02:59;15.20;;;8.10;;
56401;SDS011;42299;35.160;26.100;2023-09-18T01:13:26;17.60;;;7.38;;
56401;SDS011;42299;35.160;26.100;2023-09-18T01:34:16;16.65;;;8.38;;
56401;SDS011;42299;35.160;26.100;2023-09-18T01:44:42;16.30;;;7.80;;
56401;SDS011;42299;35.160;26.100;2023-09-18T01:55:06;17.38;;;9.15;;
56401;SDS011;42299;35.160;26.100;2023-09-18T02:05:31;21.80;;;8.80;;
56401;SDS011;42299;35.160;26.100;2023-09-18T02:15:56;16.00;;;8.93;;
56401;SDS011;42299;35.160;26.100;2023-09-18T02:26:23;17.60;;;8.35;;
56401;SDS011;42299;35.160;26.100;2023-09-18T02:36:46;17.38;;;8.15;;
56401;SDS011;42299;35.160;26.100;2023-09-18T02:47:12;16.27;;;8.18;;
56401;SDS011;42299;35.160;26.100;2023-09-18T02:57:35;14.38;;;7.32;;
56401;SDS011;42299;35.160;26.100;2023-09-18T03:08:00;15.48;;;8.73;;
56401;SDS011;42299;35.160;26.100;2023-09-18T03:18:23;15.07;;;7.97;;
56401;SDS011;42299;35.160;26.100;2023-09-18T03:28:47;17.63;;;7.82;;
56401;SDS011;42299;35.160;26.100;2023-09-18T03:39:10;16.52;;;6.85;;
56401;SDS011;42299;35.160;26.100;2023-09-18T03:49:34;15.85;;;7.50;;
56401;SDS011;42299;35.160;26.100;2023-09-18T03:59:57;19.42;;;8.63;;
56401;SDS011;42299;35.160;26.100;2023-09-18T04:10:22;19.20;;;7.90;;
56401;SDS011;42299;35.160;26.100;2023-09-18T04:20:44;25.67;;;8.70;;
56401;SDS011;42299;35.160;26.100;2023-09-18T04:31:08;18.58;;;7.72;;
56401;SDS011;42299;35.160;26.100;2023-09-18T04:41:32;20.83;;;8.32;;
56401;SDS011;42299;35.160;26.100;2023-09-18T04:51:59;21.10;;;8.60;;
56401;SDS011;42299;35.160;26.100;2023-09-18T05:02:22;17.65;;;8.60;;
56401;SDS011;42299;35.160;26.100;2023-09-18T05:12:48;18.20;;;7.97;;
56401;SDS011;42299;35.160;26.100;2023-09-18T05:23:11;22.85;;;9.15;;
56401;SDS011;42299;35.160;26.100;2023-09-18T05:33:35;19.25;;;8.65;;
56401;SDS011;42299;35.160;26.100;2023-09-18T05:43:58;19.90;;;7.30;;
56401;SDS011;42299;35.160;26.100;2023-09-18T05:54:24;15.73;;;6.60;;
56401;SDS011;42299;35.160;26.100;2023-09-18T06:04:47;21.35;;;6.82;;
56401;SDS011;42299;35.160;26.100;2023-09-18T06:15:11;20.67;;;7.22;;
56401;SDS011;42299;35.160;26.100;2023-09-18T06:25:33;20.52;;;7.43;;
56401;SDS011;42299;35.160;26.100;2023-09-18T06:36:00;15.70;;;6.20;;
56401;SDS011;42299;35.160;26.100;2023-09-18T06:46:22;17.05;;;6.18;;
56401;SDS011;42299;35.160;26.100;2023-09-18T06:56:47;14.45;;;5.00;;
56401;SDS011;42299;35.160;26.100;2023-09-18T07:07:10;13.57;;;5.07;;
56401;SDS011;42299;35.160;26.100;2023-09-18T07:17:35;17.42;;;5.20;;
56401;SDS011;42299;35.160;26.100;2023-09-18T07:27:58;17.00;;;4.43;;
56401;SDS011;42299;35.160;26.100;2023-09-18T07:38:22;13.18;;;4.70;;
56401;SDS011;42299;35.160;26.100;2023-09-18T07:48:45;15.52;;;5.90;;
56401;SDS011;42299;35.160;26.100;2023-09-18T07:59:09;16.25;;;5.13;;
56401;SDS011;42299;35.160;26.100;2023-09-18T08:09:32;12.10;;;4.68;;
56401;SDS011;42299;35.160;26.100;2023-09-18T08:19:58;13.57;;;4.72;;
56401;SDS011;42299;35.160;26.100;2023-09-18T08:30:20;13.45;;;4.10;;
56401;SDS011;42299;35.160;26.100;2023-09-18T08:40:45;16.00;;;4.05;;
56401;SDS011;42299;35.160;26.100;2023-09-18T08:51:09;9.88;;;4.07;;
56401;SDS011;42299;35.160;26.100;2023-09-18T09:01:34;14.65;;;4.78;;
56401;SDS011;42299;35.160;26.100;2023-09-18T09:11:57;14.95;;;3.90;;
56401;SDS011;42299;35.160;26.100;2023-09-18T09:22:21;12.60;;;4.10;;
56401;SDS011;42299;35.160;26.100;2023-09-18T09:32:44;15.37;;;4.30;;
56401;SDS011;42299;35.160;26.100;2023-09-18T09:43:12;11.65;;;3.95;;
56401;SDS011;42299;35.160;26.100;2023-09-18T09:53:42;14.20;;;4.43;;
56401;SDS011;42299;35.160;26.100;2023-09-18T10:04:12;11.30;;;3.88;;
56401;SDS011;42299;35.160;26.100;2023-09-18T10:25:14;14.80;;;3.90;;
56401;SDS011;42299;35.160;26.100;2023-09-18T10:35:38;13.85;;;4.15;;
56401;SDS011;42299;35.160;26.100;2023-09-18T10:46:05;13.90;;;4.10;;
56401;SDS011;42299;35.160;26.100;2023-09-18T10:56:28;16.02;;;4.30;;
56401;SDS011;42299;35.160;26.100;2023-09-18T11:07:06;19.40;;;4.82;;
56401;SDS011;42299;35.160;26.100;2023-09-18T11:17:30;15.82;;;3.65;;
56401;SDS011;42299;35.160;26.100;2023-09-18T11:27:55;17.55;;;4.40;;
56401;SDS011;42299;35.160;26.100;2023-09-18T11:38:18;17.45;;;4.53;;
56401;SDS011;42299;35.160;26.100;2023-09-18T11:48:46;14.43;;;4.07;;
56401;SDS011;42299;35.160;26.100;2023-09-18T11:59:10;19.20;;;4.18;;
56401;SDS011;42299;35.160;26.100;2023-09-18T12:09:35;17.25;;;4.28;;
56401;SDS011;42299;35.160;26.100;2023-09-18T12:19:58;17.75;;;4.95;;
56401;SDS011;42299;35.160;26.100;2023-09-18T12:30:22;18.52;;;4.75;;
56401;SDS011;42299;35.160;26.100;2023-09-18T12:40:45;12.93;;;3.97;;
56401;SDS011;42299;35.160;26.100;2023-09-18T12:51:10;19.92;;;4.40;;
56401;SDS011;42299;35.160;26.100;2023-09-18T13:01:32;16.00;;;4.75;;
56401;SDS011;42299;35.160;26.100;2023-09-18T13:12:00;16.27;;;4.55;;
56401;SDS011;42299;35.160;26.100;2023-09-18T13:22:24;19.30;;;4.47;;
56401;SDS011;42299;35.160;26.100;2023-09-18T13:32:49;13.55;;;4.47;;
56401;SDS011;42299;35.160;26.100;2023-09-18T13:43:12;14.48;;;4.85;;
56401;SDS011;42299;35.160;26.100;2023-09-18T13:53:38;15.93;;;4.18;;
56401;SDS011;42299;35.160;26.100;2023-09-18T14:04:02;16.05;;;4.30;;
56401;SDS011;42299;35.160;26.100;2023-09-18T14:14:26;16.55;;;4.75;;
56401;SDS011;42299;35.160;26.100;2023-09-18T14:24:49;16.67;;;4.30;;
56401;SDS011;42299;35.160;26.100;2023-09-18T14:35:13;12.23;;;4.07;;
56401;SDS011;42299;35.160;26.100;2023-09-18T14:45:36;12.80;;;3.35;;
56401;SDS011;42299;35.160;26.100;2023-09-18T14:56:00;17.92;;;4.90;;
56401;SDS011;42299;35.160;26.100;2023-09-18T15:06:34;16.00;;;4.53;;
56401;SDS011;42299;35.160;26.100;2023-09-18T15:16:59;16.38;;;3.80;;
56401;SDS011;42299;35.160;26.100;2023-09-18T15:27:22;17.30;;;4.22;;
56401;SDS011;42299;35.160;26.100;2023-09-18T15:37:47;17.02;;;4.32;;
56401;SDS011;42299;35.160;26.100;2023-09-18T15:48:10;17.15;;;4.72;;
56401;SDS011;42299;35.160;26.100;2023-09-18T15:58:35;17.67;;;4.45;;
56401;SDS011;42299;35.160;26.100;2023-09-18T16:08:58;15.68;;;4.00;;
56401;SDS011;42299;35.160;26.100;2023-09-18T16:19:23;18.80;;;4.70;;
56401;SDS011;42299;35.160;26.100;2023-09-18T16:29:45;21.08;;;5.15;;
56401;SDS011;42299;35.160;26.100;2023-09-18T16:40:11;17.00;;;4.57;;
56401;SDS011;42299;35.160;26.100;2023-09-18T16:50:34;17.00;;;4.63;;
56401;SDS011;42299;35.160;26.100;2023-09-18T17:00:59;18.55;;;5.13;;
56401;SDS011;42299;35.160;26.100;2023-09-18T17:11:23;15.77;;;4.78;;
56401;SDS011;42299;35.160;26.100;2023-09-18T17:21:48;17.85;;;4.85;;
56401;SDS011;42299;35.160;26.100;2023-09-18T17:32:11;15.88;;;4.40;;
56401;SDS011;42299;35.160;26.100;2023-09-18T17:42:35;15.20;;;4.20;;
56401;SDS011;42299;35.160;26.100;2023-09-18T17:52:58;13.48;;;4.00;;
56401;SDS011;42299;35.160;26.100;2023-09-18T18:03:22;16.67;;;4.90;;
56401;SDS011;42299;35.160;26.100;2023-09-18T18:13:44;10.65;;;3.88;;
56401;SDS011;42299;35.160;26.100;2023-09-18T18:24:08;12.75;;;3.95;;
56401;SDS011;42299;35.160;26.100;2023-09-18T18:34:31;17.20;;;4.82;;
56401;SDS011;42299;35.160;26.100;2023-09-18T18:44:55;15.70;;;3.97;;
56401;SDS011;42299;35.160;26.100;2023-09-18T18:55:18;10.27;;;4.10;;
56401;SDS011;42299;35.160;26.100;2023-09-18T19:05:42;13.45;;;4.22;;
56401;SDS011;42299;35.160;26.100;2023-09-18T19:16:06;13.43;;;3.97;;
56401;SDS011;42299;35.160;26.100;2023-09-18T19:26:31;14.80;;;4.50;;
56401;SDS011;42299;35.160;26.100;2023-09-18T19:36:53;13.82;;;4.30;;
56401;SDS011;42299;35.160;26.100;2023-09-18T19:47:18;13.40;;;3.72;;
56401;SDS011;42299;35.160;26.100;2023-09-18T19:57:40;14.05;;;4.13;;
56401;SDS011;42299;35.160;26.100;2023-09-18T20:08:05;16.33;;;4.10;;
56401;SDS011;42299;35.160;26.100;2023-09-18T20:18:28;12.70;;;4.60;;
56401;SDS011;42299;35.160;26.100;2023-09-18T20:28:53;10.20;;;3.50;;
56401;SDS011;42299;35.160;26.100;2023-09-18T20:39:15;11.80;;;4.10;;
56401;SDS011;42299;35.160;26.100;2023-09-18T20:49:41;10.50;;;4.10;;
56401;SDS011;42299;35.160;26.100;2023-09-18T21:00:09;15.68;;;4.65;;
56401;SDS011;42299;35.160;26.100;2023-09-18T21:10:35;11.43;;;4.20;;
56401;SDS011;42299;35.160;26.100;2023-09-18T21:20:58;10.02;;;3.97;;
56401;SDS011;42299;35.160;26.100;2023-09-18T21:31:22;15.75;;;3.90;;
56401;SDS011;42299;35.160;26.100;2023-09-18T21:41:45;17.13;;;4.60;;
56401;SDS011;42299;35.160;26.100;2023-09-18T21:52:09;13.80;;;4.00;;
56401;SDS011;42299;35.160;26.100;2023-09-18T22:02:34;12.10;;;3.97;;
56401;SDS011;42299;35.160;26.100;2023-09-18T22:12:58;12.77;;;4.85;;
56401;SDS011;42299;35.160;26.100;2023-09-18T22:23:21;10.77;;;4.18;;
56401;SDS011;42299;35.160;26.100;2023-09-18T22:33:47;14.20;;;4.88;;
56401;SDS011;42299;35.160;26.100;2023-09-18T22:55:13;12.57;;;4.90;;
56401;SDS011;42299;35.160;26.100;2023-09-18T23:05:38;10.15;;;3.60;;
56401;SDS011;42299;35.160;26.100;2023-09-18T23:16:02;12.77;;;4.65;;
56401;SDS011;42299;35.160;26.100;2023-09-18T23:26:25;8.45;;;3.70;;
56401;SDS011;42299;35.160;26.100;2023-09-18T23:36:51;13.55;;;4.57;;
56401;SDS011;42299;35.160;26.100;2023-09-18T23:47:15;9.40;;;4.20;;
56401;SDS011;42299;35.160;26.100;2023-09-18T23:57:49;13.63;;;4.63;;
